Dawid Bednarek

Recruteur en chef - Legia
23 Oct 2027
Samedi
Processus

Personnalité

Adaptabilité (5) Ambition (19) Controverse (11) Loyauté (18) Pression (16) Professionnalisme (16) Sportivité (3) Tempérament (16)

Profil

Style d'entraînement Démocratique
Diplôme Continental Pro
Détermination 12
Gestion des joueurs 13
Motivation 11
Discipline 11
Satisfaction professionnelle
58%
Fatigue
0%
Rôle Recruteur en chef
Salaire 29.2K p/s
Contrat 14.03.2030

Performance

Comportement Bon
Efficacité de l'entraînement
26%
Développement des joueurs
50%
Prévention des blessures
25%
Mise en place tactique
25%

Événements récents

A participé à une réunion de recrutement maintenant
A recommandé une cible de transfert maintenant
A participé à une réunion de recrutement maintenant
A participé à une réunion de recrutement maintenant
A participé à une réunion de recrutement maintenant
A recommandé une cible de transfert maintenant
A évalué un joueur maintenant
A évalué un joueur maintenant

Suivi en cours

296
Joueur Club Statut Capacité Confiance Observé Dernière observation Dernier vote
Anthony Patterson Wrexham Actif 136 / 140 40% 10 22.10.2027 -
Marco Carnesecchi Torino Actif 163 / 165 40% 3 22.10.2027 -
Giorgi Mamardashvili Sunderland Actif 171 / 163 40% 3 22.10.2027 -
Michael Cooper Sheffield United Actif 135 / 135 40% 5 21.10.2027 -
Arijanet Murić Sassuolo Actif 149 / 143 40% 5 21.10.2027 -
Christian Walton Norwich City Actif 140 / 133 40% 3 21.10.2027 -
Sławomir Abramowicz Jagiellonia Actif 142 / 133 40% 8 20.10.2027 -
Bart Verbruggen Newcastle United Actif 159 / 161 40% 5 20.10.2027 -
Jakub Stolarczyk Tottenham Actif 142 / 141 40% 6 20.10.2027 -
Jacob Widell Zetterström Derby County Actif 131 / 137 40% 6 19.10.2027 -
Iván Villar Celta Actif 129 / 127 40% 1 19.10.2027 -
Lukáš Horníček Burnley Actif 149 / 147 40% 3 18.10.2027 -
Mads Hermansen West Ham United Actif 143 / 144 40% 5 18.10.2027 -
Simone Scuffet Pisa Actif 142 / 130 40% 1 18.10.2027 -
Dmytro Riznyk AS Roma Actif 148 / 144 40% 4 16.10.2027 -
Aaron Ramsdale Southampton Actif 154 / 153 40% 4 16.10.2027 -
Mateusz Kochalski Qarabag Actif 145 / 129 40% 4 15.10.2027 -
Andriy Lunin Real Madrid Actif 161 / 162 40% 7 15.10.2027 -
Manuel Roffo Hajduk Split Actif 129 / 130 40% 3 14.10.2027 -
Predrag Rajković Al-Nassr Actif 134 / 135 40% 2 14.10.2027 -
Egil Selvik Watford Actif 136 / 135 40% 2 13.10.2027 -
Dean Henderson Crystal Palace Actif 158 / 158 40% 3 12.10.2027 -
Mark Travers Everton Actif 147 / 150 40% 3 12.10.2027 -
Alex Palmer Ipswich Town Actif 127 / 137 40% 3 11.10.2027 -
Daniel Iversen Preston Actif 134 / 136 40% 6 10.10.2027 -
Carl Rushworth Coventry City Actif 145 / 141 40% 5 10.10.2027 -
Radosław Majecki Monaco Actif 141 / 129 40% 3 07.10.2027 -
Sam Tickle Maccabi Tel Aviv Actif 136 / 138 40% 2 06.10.2027 -
Alex Meret Napoli Actif 162 / 161 40% 3 05.10.2027 -
John Victor Nottingham Forest Actif 133 / 139 40% 7 05.10.2027 -
Jamie Cumming Birmingham Actif 134 / 139 40% 3 05.10.2027 -
Đorđe Petrović Bournemouth Actif 157 / 158 40% 6 04.10.2027 -
Bento Lokomotiv Moscow Actif 134 / 142 40% 1 04.10.2027 -
Christos Mandas Lazio Actif 143 / 152 40% 1 04.10.2027 -
Kostantis Tzolakis Hull City Actif 145 / 157 40% 3 02.10.2027 -
Max Weiß Wolverhampton Actif 140 / 136 40% 2 01.10.2027 -
Dominik Takáč Slovan Bratislava Actif 131 / 133 40% 3 01.10.2027 -
Bryan Ramírez FC Cincinnati Actif 129 / 122 40% 2 28.09.2027 -
Yehor Yarmoliuk Brentford Actif 150 / 157 40% 1 28.09.2027 -
Ander Astralaga Villarreal Actif 137 / 139 40% 1 26.09.2027 -
Viktor Johansson Stoke City Actif 142 / 143 40% 4 25.09.2027 -
Oliver Dovin Middlesbrough Actif 137 / 141 40% 2 22.09.2027 -
Richard Ledezma River Plate Actif 131 / 134 40% 2 22.09.2027 -
Matty Cash Aston Villa Actif 150 / 155 40% 1 22.09.2027 -
Anton Stach Leeds United Actif 156 / 150 40% 1 22.09.2027 -
Andreas Hanche-Olsen Chicago Fire Actif 126 / 125 40% 2 21.09.2027 -
Mauro Arambarri River Plate Actif 161 / 162 40% 2 21.09.2027 -
Jarrad Branthwaite Everton Actif 154 / 155 40% 1 21.09.2027 -
Aslak Fonn Witry Rosenborg Actif 120 / 132 40% 1 18.09.2027 -
Ryan Sessegnon Fulham Actif 156 / 151 40% 1 18.09.2027 -
Jake O'Brien Bolton Wanderers Actif 147 / 147 40% 1 18.09.2027 -
Adrien Truffert Bournemouth Actif 161 / 158 40% 2 17.09.2027 -
Evander FC Cincinnati Actif 139 / 142 40% 2 17.09.2027 -
Jakub Piotrowski Udinese Actif 141 / 136 40% 1 17.09.2027 -
Nicola Zalewski Atalanta Actif 153 / 148 40% 4 16.09.2027 -
Emil Breivik Molde Actif 146 / 142 40% 1 16.09.2027 -
Óscar Mingueza Crystal Palace Actif 148 / 148 40% 3 14.09.2027 -
Angeliño AS Roma Actif 149 / 156 40% 1 14.09.2027 -
Federico Pereira Huracán Actif 136 / 141 40% 1 14.09.2027 -
Shea Charles Southampton Actif 142 / 142 40% 7 13.09.2027 -
Odin Bjørtuft Bodo/Glimt Actif 124 / 133 40% 1 13.09.2027 -
Nicolás Romero Minnesota United FC Actif 125 / 127 40% 1 12.09.2027 -
Robert Sánchez Chelsea Actif 158 / 155 40% 1 11.09.2027 -
Scott McKenna Dinamo Zagreb Actif 136 / 126 40% 1 10.09.2027 -
Fredrik Bjørkan Bodo/Glimt Actif 139 / 136 40% 1 10.09.2027 -
Miles Robinson FC Cincinnati Actif 121 / 141 40% 1 08.09.2027 -
David Douděra FC Cincinnati Actif 124 / 127 40% 1 08.09.2027 -
Senne Lammens Manchester United Actif 153 / 153 40% 2 06.09.2027 -
Grégoire Coudert Burnley Actif 139 / 135 40% 3 05.09.2027 -
Diego Enríquez Sporting Cristal Actif 142 / 137 40% 4 05.09.2027 -
Raúl Rangel Brighton Actif 134 / 139 40% 1 02.09.2027 -
James Trafford Leeds United Actif 151 / 149 40% 4 30.08.2027 -
Nordi Mukiele Sunderland Actif 143 / 153 40% 1 30.08.2027 -
André Wolverhampton Actif 148 / 151 40% 1 30.08.2027 -
Patrick Dorgu West Bromwich Albion Actif 152 / 145 40% 1 30.08.2027 -
Radek Vítek Middlesbrough Actif 137 / 149 40% 7 26.08.2027 -
Zion Suzuki Aston Villa Actif 145 / 147 40% 2 26.08.2027 -
Dinko Horkaš Al Wasl Actif 133 / 134 40% 2 20.08.2027 -
Lorenzo Montipò Venezia Actif 148 / 141 40% 1 20.08.2027 -
Thierno Barry Watford Actif 143 / 140 40% 1 18.08.2027 -
Nico Paz Nacional Actif 150 / 155 40% 1 18.08.2027 -
Akor Adams Lazio Actif 143 / 146 40% 1 18.08.2027 -
Roger François Udinese Actif 141 / 150 40% 2 15.08.2027 -
Nadir Zortea Bologna Actif 146 / 136 40% 1 15.08.2027 -
Aleksa Terzić Frosinone Actif 141 / 136 40% 1 15.08.2027 -
Lewis Ferguson Bologna Actif 150 / 151 40% 2 14.08.2027 -
Adrián Bernabé Parma Actif 138 / 148 40% 1 14.08.2027 -
Ruben Loftus-Cheek AC Milan Actif 152 / 143 40% 1 14.08.2027 -
Matt Freese New York City Actif 122 / 132 40% 1 14.08.2027 -
Pervis Estupiñán AC Milan Actif 153 / 146 40% 1 11.08.2027 -
Isak Hien Atalanta Actif 158 / 155 40% 1 11.08.2027 -
Carlos Augusto Inter Actif 149 / 153 40% 1 11.08.2027 -
Sandi Lovrić Hellas Verona Actif 139 / 136 40% 2 10.08.2027 -
Guille Rosas Gijón Actif 141 / 143 40% 4 10.08.2027 -
Odilon Kossounou Atalanta Actif 149 / 147 40% 1 10.08.2027 -
Lorenzo Palmisani Frosinone Actif 133 / 137 40% 2 06.08.2027 -
Ethan Ampadu Leeds United Actif 153 / 151 40% 1 06.08.2027 -
Lewis Hall Newcastle United Actif 150 / 152 40% 1 06.08.2027 -
Nobel Mendy Hull City Actif 131 / 139 40% 2 05.08.2027 -
Ramón Terrats Getafe Actif 138 / 147 40% 7 03.08.2027 -
Jacob Greaves Ipswich Town Actif 147 / 139 40% 1 03.08.2027 -
Brooke Norton-Cuffy Hull City Actif 139 / 140 40% 5 02.08.2027 Observer
Ainsley Maitland-Niles Everton Actif 150 / 137 40% 1 02.08.2027 -
Dara O'Shea Ipswich Town Actif 136 / 143 40% 2 30.07.2027 -
Bobby Thomas Coventry City Actif 142 / 134 40% 1 30.07.2027 -
Adrian Šemper Al-Fateh Actif 147 / 138 40% 1 29.07.2027 -
Maílson Al-Taawoun Actif 119 / 133 40% 1 28.07.2027 -
Rico Lewis Manchester City Actif 161 / 153 40% 1 26.07.2027 -
Jens Odgaard Bologna Perdu 137 / 136 40% 1 20.07.2027 -
Thiago Brentford Actif 154 / 148 40% 1 20.07.2027 -
Tommaso Barbieri Cremonese Perdu 134 / 137 40% 1 14.07.2027 -
Alfie Doughty Millwall Actif 124 / 135 40% 1 14.07.2027 -
Gustavo Hamer Sheffield United Actif 144 / 138 40% 2 11.07.2027 -
Toti Wolverhampton Actif 139 / 132 40% 1 11.07.2027 -
Luke McNally Bristol City Actif 129 / 127 40% 1 11.07.2027 -
Milan van Ewijk Coventry City Actif 129 / 139 40% 2 09.07.2027 -
Leon Goretzka Aston Villa Actif 163 / 151 40% 2 09.07.2027 -
Saša Lukić Ipswich Town Actif 138 / 147 40% 3 08.07.2027 -
Jacques Ekomié Wrexham Actif 138 / 138 40% 2 08.07.2027 -
Callum Brittain Middlesbrough Actif 129 / 132 40% 1 07.07.2027 -
Adam Randell Bristol City Actif 134 / 129 40% 1 07.07.2027 -
Florentino Luís Ipswich Town Actif 148 / 141 40% 3 06.07.2027 -
Álex Valle Como Actif 134 / 142 40% 2 06.07.2027 -
Japhet Tanganga Sheffield United Actif 129 / 139 40% 1 05.07.2027 -
Toby Collyer West Bromwich Albion Actif 134 / 134 40% 1 05.07.2027 -
Azor Matusiwa Ipswich Town Actif 137 / 134 40% 1 28.06.2027 -
Mike Maignan AC Milan Actif 161 / 171 40% 1 28.06.2027 -
Kenny Tete Fulham Actif 152 / 142 40% 4 25.06.2027 -
Sander Berge Fulham Actif 148 / 146 40% 1 25.06.2027 -
Christian Krasnodar Actif 139 / 141 40% 1 24.06.2027 -
Nicolò Bertola Udinese Actif 138 / 140 40% 1 24.06.2027 -
Benjamin White Arsenal Actif 152 / 164 40% 1 23.06.2027 -
Mateusz Klich Cracovia Perdu 124 / 115 65% 1 14.06.2027 -
Emanuele Valeri Parma Actif 140 / 134 40% 1 01.06.2027 -
Tyrell Malacia Derby County Actif 136 / 139 40% 1 01.06.2027 -
Todd Cantwell Blackburn Rovers Actif 131 / 134 40% 5 30.05.2027 -
Max Johnston Derby County Actif 135 / 124 40% 3 30.05.2027 -
Peter Federico Gornik Zabrze Actif 118 / 120 40% 8 29.05.2027 Observer
Lewis O'Brien Wrexham Actif 120 / 130 40% 1 29.05.2027 -
Isaiah Jones Luton Town Actif 126 / 122 40% 3 26.05.2027 -
Max Bird Birmingham Actif 132 / 130 40% 4 26.05.2027 -
John McGinn Aston Villa Actif 150 / 141 40% 1 25.05.2027 -
Kasey McAteer Ipswich Town Actif 137 / 133 40% 4 23.05.2027 -
Andre Brooks Sheffield United Actif 134 / 128 40% 1 23.05.2027 -
Ronald Swansea City Actif 136 / 125 40% 6 22.05.2027 -
Jack McGlynn Stoke City Actif 128 / 131 40% 8 21.05.2027 -
Jack Rudoni Coventry City Actif 139 / 129 40% 3 21.05.2027 -
Jeon Jin-Woo Sheffield Wednesday Actif 131 / 125 40% 3 19.05.2027 -
Rumarn Burrell Queens Park Rangers Actif 125 / 121 40% 2 19.05.2027 -
Harry Clarke Preston Actif 135 / 131 40% 1 18.05.2027 -
Tom Fellows Southampton Actif 139 / 130 40% 5 17.05.2027 -
Tatsuhiro Sakamoto Coventry City Actif 124 / 122 40% 2 17.05.2027 -
Welington Southampton Actif 132 / 136 40% 1 17.05.2027 -
Sorba Thomas Stoke City Actif 137 / 132 40% 9 16.05.2027 -
Isaac Price West Bromwich Albion Actif 129 / 129 40% 3 16.05.2027 -
Tommy Conway Middlesbrough Actif 131 / 131 40% 3 15.05.2027 -
Hwang Hee-Chan Wolverhampton Actif 142 / 127 40% 3 15.05.2027 -
Josh Murphy Portsmouth Actif 126 / 119 40% 3 14.05.2027 -
Koki Saito Queens Park Rangers Actif 127 / 119 40% 4 11.05.2027 -
Fran Vieites Exeter City Actif 117 / 123 40% 3 10.05.2027 -
Stephy Mavididi Leicester City Actif 126 / 128 40% 1 07.05.2027 -
Ali Ahmed Norwich City Actif 126 / 126 40% 1 07.05.2027 -
Wladimiro Falcone Lecce Actif 148 / 133 40% 1 04.05.2027 -
Alessio Zerbin Frosinone Actif 137 / 135 40% 2 03.05.2027 -
Carlos Vicente Udinese Actif 137 / 144 40% 1 03.05.2027 -
Solly March Brighton Actif 160 / 148 40% 3 28.04.2027 -
Tomáš Rigo Stoke City Actif 138 / 127 40% 1 27.04.2027 -
Zeidane Inoussa Swansea City Actif 131 / 122 40% 4 26.04.2027 -
Joe Lumley Sheffield Wednesday Actif 121 / 113 40% 4 26.04.2027 -
Tyrese Campbell Sheffield United Actif 128 / 125 40% 1 26.04.2027 -
Nathan Trott Cardiff City Actif 119 / 131 40% 3 25.04.2027 -
David Brooks Bournemouth Actif 140 / 144 40% 2 21.04.2027 -
Harry Wilson Leeds United Actif 151 / 146 40% 2 21.04.2027 -
Georges-Kévin Nkoudou Al-Diriyah Actif 121 / 125 40% 6 20.04.2027 -
Nicolas Schmid Portsmouth Actif 120 / 123 40% 3 20.04.2027 -
Ryoya Morishita Blackburn Rovers Actif 125 / 125 40% 4 17.04.2027 -
Mario Pašalić Atalanta Actif 149 / 141 40% 3 13.04.2027 -
Domagoj Drožđek Tractor Actif 123 / 134 40% 5 12.04.2027 -
Demarai Gray Birmingham Actif 125 / 131 40% 3 09.04.2027 -
Joe Gelhardt Hull City Actif 127 / 138 40% 3 05.04.2027 -
Oliver Skipp Leicester City Actif 129 / 130 40% 1 03.04.2027 -
Zian Flemming Ipswich Town Actif 125 / 129 40% 2 02.04.2027 -
Mykola Shaparenko Dynamo Kyiv Actif 122 / 123 40% 1 31.03.2027 -
Riley McGree Middlesbrough Actif 132 / 126 40% 1 31.03.2027 -
Heorhii Yermakov Metalist Actif 112 / 110 40% 2 28.03.2027 -
Josh Keeley Luton Town Actif 130 / 123 40% 3 27.03.2027 -
Fer López Wolverhampton Actif 127 / 135 40% 1 26.03.2027 -
Petar Stanić Ludogorets Actif 135 / 131 40% 5 23.03.2027 -
Finn Azaz Southampton Actif 126 / 121 40% 3 22.03.2027 -
Ethan Galbraith Swansea City Actif 139 / 134 40% 1 22.03.2027 -
Max O'Leary West Bromwich Albion Actif 119 / 130 40% 1 20.03.2027 -
Sipho Chaine Orlando Pirates Actif 117 / 117 40% 1 20.03.2027 -
Sergio Lozano Jagiellonia Actif 121 / 120 40% 2 19.03.2027 -
Hélio Varela Maccabi Tel Aviv Actif 123 / 117 40% 1 19.03.2027 -
Jovon Makama Norwich City Actif 129 / 122 40% 2 17.03.2027 -
Marquinhos Spartak Moscow Actif 129 / 130 40% 4 15.03.2027 -
Nazar Voloshyn Dynamo Kyiv Actif 135 / 129 40% 7 07.03.2027 -
Oston O'runov Persepolis Actif 123 / 125 40% 1 05.03.2027 -
Oussama Idrissi Ferencvaros Actif 146 / 136 40% 2 03.03.2027 -
Giorgi Chakvetadze Watford Actif 132 / 132 40% 1 01.03.2027 -
Helinho Toluca Actif 130 / 138 40% 2 27.02.2027 -
Oleksandr Saputin Zorya Actif 108 / 124 40% 1 26.02.2027 -
Jordan Lotomba Bloemfontein Celtic Actif 115 / 111 40% 1 24.02.2027 -
Tariq Lamptey Queens Park Rangers Actif 131 / 136 40% 1 23.02.2027 -
Vojtěch Vorel Mlada Boleslav Actif 118 / 118 40% 1 23.02.2027 -
Pablo Solari Spartak Moscow Actif 124 / 131 40% 5 19.02.2027 -
Galeno Al-Ahli Actif 157 / 152 40% 1 19.02.2027 -
Steven Bergwijn Al-Ittihad Actif 163 / 150 40% 6 17.02.2027 -
Kellyn Acosta Pogon Actif 134 / 123 40% 1 16.02.2027 -
Aaron Connolly Ruch Actif 125 / 124 40% 1 11.02.2027 -
Lukas Jensen Millwall Actif 120 / 126 40% 1 09.02.2027 -
Óscar Al Ahly Actif 123 / 117 40% 1 09.02.2027 -
Oleh Ocheretko Shakhtar Actif 136 / 128 40% 2 07.02.2027 -
Bernard Tekpetey Ludogorets Actif 134 / 129 40% 1 01.02.2027 -
Caio Vidal FC Copenhagen Négociation 128 / 129 63% 1 25.01.2027 Approuver
Szymon Szymański Ruch Actif 115 / 111 65% 1 25.01.2027 Approuver
Wiktor Długosz Korona Actif 106 / 116 40% 1 22.01.2027 -
Daniel Kyerewaa Reading Actif 120 / 111 40% 1 22.01.2027 -
Mduduzi Shabalala Kaizer Chiefs Actif 120 / 124 40% 1 22.01.2027 -
Oli McBurnie Hull City Actif 135 / 139 40% 2 12.01.2027 -
Reda Khadra Qarabag Actif 138 / 130 40% 1 01.01.2027 -
Fábio Carvalho Brentford Actif 130 / 139 40% 4 30.12.2026 -
Ivan Toney Al-Ahli Actif 151 / 139 40% 10 26.12.2026 -
Youssef En-Nesyri Al-Ittihad Actif 143 / 149 40% 11 25.12.2026 -
Troy Parrott Betis Actif 136 / 137 40% 10 25.12.2026 -
Taiwo Awoniyi Coventry City Actif 146 / 130 40% 2 24.12.2026 -
Tomáš Chorý Spartak Moscow Perdu 135 / 135 40% 9 23.12.2026 -
Marin Benko Zadar Actif 119 / 118 40% 2 23.12.2026 -
Callum O'Hare Sheffield United Actif 122 / 122 40% 1 20.12.2026 -
Masoud Ebrahimi Sepahan Actif 122 / 122 40% 4 19.12.2026 -
Giacomo Raspadori Atalanta Actif 154 / 141 40% 1 19.12.2026 -
Mateusz Bogusz Houston Dynamo Actif 134 / 116 40% 3 17.12.2026 -
Aljoša Matko Ujpest Actif 120 / 121 40% 2 17.12.2026 -
Zeki Amdouni Burnley Actif 134 / 128 40% 2 17.12.2026 -
Achraf Bencharki Rapid Wien Actif 124 / 122 40% 1 16.12.2026 -
Sam Surridge Leeds United Actif 125 / 135 40% 1 14.12.2026 -
Bohdan Viunnyk Lechia Actif 118 / 108 40% 1 11.12.2026 Plus d'infos
Ollie Watkins Al-Hilal Actif 152 / 142 40% 7 07.12.2026 -
Wilson Isidor Sunderland Actif 140 / 142 40% 1 06.12.2026 -
Suleiman Camara Slovan Bratislava Actif 129 / 122 40% 2 04.12.2026 -
Andrea Belotti Cagliari Actif 138 / 126 40% 1 04.12.2026 -
Breel Embolo Atlanta United FC Actif 136 / 137 40% 5 03.12.2026 -
Veljko Birmančević Ferencvaros Actif 140 / 134 40% 4 03.12.2026 -
Kwadwo Duah Ludogorets Actif 134 / 133 40% 1 03.12.2026 -
Rajmund Molnár Pogon Actif 121 / 114 40% 2 02.12.2026 -
Mojmír Chytil Hajduk Split Actif 139 / 129 40% 4 29.11.2026 -
Tshepang Moremi Orlando Pirates Actif 113 / 124 40% 1 29.11.2026 -
Filip Szymczak Zaglebie Actif 108 / 121 40% 1 28.11.2026 -
Esequiel Barco Spartak Moscow Actif 146 / 134 40% 2 25.11.2026 -
Matthias Seidl Rapid Wien Actif 132 / 124 40% 1 25.11.2026 -
Ammar Ramadan DAC Dunajska Streda Actif 131 / 117 40% 1 25.11.2026 -
Luca Langoni New England Revolution Actif 137 / 139 40% 4 20.11.2026 -
Omar Khribin Al Wahda Actif 119 / 130 40% 3 20.11.2026 -
Camilo Durán Bloemfontein Celtic Actif 114 / 125 40% 2 17.11.2026 -
Relebohile Mofokeng Orlando Pirates Actif 108 / 121 40% 1 17.11.2026 -
Fraser Murray Wigan Athletic Actif 112 / 107 40% 1 17.11.2026 -
Jesus Ferreira Seattle Sounders Actif 119 / 119 40% 4 15.11.2026 -
Mihael Mlinarić Zaglebie Actif 119 / 113 40% 4 15.11.2026 -
Mehdi Hashemnejad Tractor Actif 127 / 114 40% 1 15.11.2026 -
Pep Biel Charlotte Football Club Actif 120 / 122 40% 6 13.11.2026 -
Roger Fernandes Al-Ittihad Actif 138 / 149 40% 1 10.11.2026 -
Haris Tabaković Red Bull Salzburg Actif 134 / 130 40% 4 08.11.2026 -
Talles Magno New York City Actif 118 / 126 40% 3 06.11.2026 -
Patrik Hellebrand Korona Actif 109 / 122 40% 1 06.11.2026 -
Marcel Pięczek Korona Actif 119 / 111 40% 1 06.11.2026 -
Mayckel Lahdo Malmo FF Actif 135 / 127 40% 1 01.11.2026 -
Maxim Glushenkov Zenit Actif 147 / 143 40% 1 01.11.2026 -
Chuchu Ramírez Nacional Actif 128 / 137 40% 3 29.10.2026 -
Timo Werner San Jose Earthquakes Actif 141 / 128 40% 2 29.10.2026 -
Antony Portland Timbers Actif 134 / 120 40% 1 28.10.2026 -
Dominik Marczuk Real Salt Lake Actif 115 / 122 40% 1 28.10.2026 -
Kacper Urbański Gornik Zabrze Actif 130 / 128 40% 1 28.10.2026 -
Wessam Abou Ali Columbus Crew Actif 121 / 118 40% 4 26.10.2026 -
Manfred Ugalde Spartak Moscow Actif 137 / 128 40% 2 26.10.2026 -
Josh Sargent Toronto FC Actif 115 / 116 40% 3 21.10.2026 -
Diego Luna Real Salt Lake Actif 138 / 132 40% 1 20.10.2026 -
Anders Klynge Jagiellonia Actif 123 / 122 40% 1 17.10.2026 Plus d'infos
Jens Petter Hauge Bodo/Glimt Actif 142 / 131 40% 1 16.10.2026 -
Stav Toriel Hapoel Tel Aviv Actif 130 / 139 40% 1 14.10.2026 -
Elias Achouri San Diego Football Club Actif 133 / 138 40% 1 12.10.2026 -
Martín Ojeda Orlando City Actif 142 / 139 40% 1 12.10.2026 -
Joaquín Pereyra Minnesota United FC Actif 137 / 118 40% 1 05.10.2026 -
Moussa Dembélé Al Ahli Actif 139 / 123 40% 1 28.09.2026 -
Vedat Muriqi Fenerbahce Actif 145 / 155 40% 1 20.09.2026 -
Liel Abada Charlotte Football Club Actif 119 / 131 40% 2 19.09.2026 -
Alexandr Sobolev Zenit Actif 134 / 126 40% 3 19.09.2026 -
Dijon Kameri Cracovia Actif 116 / 128 40% 1 17.09.2026 -
Djordje Mihailović Toronto FC Actif 120 / 139 40% 1 17.09.2026 -
Maurits Kjærgaard Red Bull Salzburg Actif 127 / 124 40% 2 13.09.2026 -
Dániel Gazdag New England Revolution Actif 116 / 117 40% 1 09.09.2026 -
Philipp Alaba Austria Wien Actif 121 / 128 40% 1 09.09.2026 -
Denis Bouanga Los Angeles Football Club Actif 121 / 138 40% 1 22.08.2026 -
Kiril Despodov PAOK Actif 138 / 138 40% 1 18.08.2026 -
Karim Konaté Red Bull Salzburg Actif 125 / 130 40% 1 05.08.2026 -
Antonio Blanco Alavés Actif 132 / 149 40% 1 02.08.2026 -
Dwight McNeil Crystal Palace Actif 139 / 136 40% 1 02.08.2026 -